createdAt,value
2023-04-17T00:01:20.006Z,13.56
2023-04-17T00:03:53.243Z,13.52
2023-04-17T00:06:27.461Z,13.50
2023-04-17T00:09:00.098Z,13.47
2023-04-17T00:11:32.649Z,13.45
2023-04-17T00:14:05.925Z,13.37
2023-04-17T00:16:38.226Z,13.31
2023-04-17T00:19:10.592Z,13.33
2023-04-17T00:21:42.993Z,13.36
2023-04-17T00:24:15.389Z,13.37
2023-04-17T00:26:47.591Z,13.35
2023-04-17T00:29:19.883Z,13.31
2023-04-17T00:31:52.233Z,13.31
2023-04-17T00:34:24.687Z,13.31
2023-04-17T00:36:56.776Z,13.27
2023-04-17T00:39:28.919Z,13.26
2023-04-17T00:42:01.680Z,13.29
2023-04-17T00:44:34.190Z,13.32
2023-04-17T00:47:06.956Z,13.29
2023-04-17T00:49:39.202Z,13.33
2023-04-17T00:52:12.222Z,13.32
2023-04-17T00:54:44.714Z,13.31
2023-04-17T00:57:17.031Z,13.31
2023-04-17T00:59:50.721Z,13.33
2023-04-17T01:02:23.061Z,13.32
2023-04-17T01:04:55.495Z,13.29
2023-04-17T01:07:28.555Z,13.32
2023-04-17T01:10:01.956Z,13.28
2023-04-17T01:12:34.624Z,13.27
2023-04-17T01:15:09.473Z,13.22
2023-04-17T01:17:41.885Z,13.17
2023-04-17T01:20:15.206Z,13.16
2023-04-17T01:22:49.902Z,13.20
2023-04-17T01:25:20.506Z,13.16
2023-04-17T01:27:52.962Z,13.10
2023-04-17T01:30:25.869Z,13.13
2023-04-17T01:33:06.083Z,12.96
2023-04-17T01:35:38.393Z,12.92
2023-04-17T01:38:10.589Z,12.90
2023-04-17T01:40:42.749Z,12.93
2023-04-17T01:43:14.976Z,12.94
2023-04-17T01:45:47.579Z,12.92
2023-04-17T01:48:19.832Z,12.90
2023-04-17T01:50:52.272Z,12.91
2023-04-17T01:53:24.645Z,12.91
2023-04-17T01:55:56.789Z,12.90
2023-04-17T01:58:29.109Z,12.89
2023-04-17T02:01:02.107Z,12.88
2023-04-17T02:03:34.339Z,12.83
2023-04-17T02:06:07.241Z,12.88
2023-04-17T02:08:39.554Z,12.87
2023-04-17T02:11:13.583Z,12.86
2023-04-17T02:13:47.392Z,12.76
2023-04-17T02:16:21.918Z,12.86
2023-04-17T02:18:54.716Z,12.84
2023-04-17T02:21:27.427Z,12.85
2023-04-17T02:23:59.772Z,12.85
2023-04-17T02:26:33.937Z,12.84
2023-04-17T02:29:06.332Z,12.82
2023-04-17T02:31:38.584Z,12.82
2023-04-17T02:34:10.828Z,12.77
2023-04-17T02:36:43.969Z,12.78
2023-04-17T02:39:16.050Z,12.76
2023-04-17T02:41:48.903Z,12.77
2023-04-17T02:44:21.332Z,12.76
2023-04-17T02:46:54.140Z,12.79
2023-04-17T02:49:26.898Z,12.82
2023-04-17T02:51:59.469Z,12.74
2023-04-17T02:54:31.883Z,12.79
2023-04-17T02:57:04.217Z,12.79
2023-04-17T02:59:36.449Z,12.82
2023-04-17T03:02:09.333Z,12.79
2023-04-17T03:04:41.970Z,12.79
2023-04-17T03:07:14.113Z,12.79
2023-04-17T03:09:47.135Z,12.76
2023-04-17T03:12:19.871Z,12.73
2023-04-17T03:14:52.366Z,12.72
2023-04-17T03:17:25.201Z,12.70
2023-04-17T03:19:58.018Z,12.63
2023-04-17T03:22:30.574Z,12.63
2023-04-17T03:25:02.926Z,12.52
2023-04-17T03:27:40.949Z,12.58
2023-04-17T03:30:14.240Z,12.58
2023-04-17T03:32:49.649Z,12.59
2023-04-17T03:35:22.696Z,12.55
2023-04-17T03:37:54.929Z,12.54
2023-04-17T03:40:28.311Z,12.56
2023-04-17T03:43:00.496Z,12.64
2023-04-17T03:45:33.449Z,12.58
2023-04-17T03:48:07.456Z,12.56
2023-04-17T03:50:41.973Z,12.56
2023-04-17T03:53:14.404Z,12.52
2023-04-17T03:55:46.804Z,12.50
2023-04-17T03:58:27.739Z,12.55
2023-04-17T04:01:02.026Z,12.54
2023-04-17T04:03:36.450Z,12.56
2023-04-17T04:06:09.566Z,12.45
2023-04-17T04:08:42.312Z,12.47
2023-04-17T04:11:14.876Z,12.43
2023-04-17T04:13:47.916Z,12.48
2023-04-17T04:16:20.097Z,12.50
2023-04-17T04:18:54.225Z,12.49
2023-04-17T04:21:28.402Z,12.46
2023-04-17T04:24:01.234Z,12.50
2023-04-17T04:26:33.638Z,12.50
2023-04-17T04:29:05.975Z,12.49
2023-04-17T04:31:51.086Z,12.53
2023-04-17T04:34:29.643Z,12.52
2023-04-17T04:37:02.290Z,12.50
2023-04-17T04:39:47.419Z,12.44
2023-04-17T04:42:22.479Z,12.48
2023-04-17T04:45:12.076Z,12.47
2023-04-17T04:47:44.686Z,12.52
2023-04-17T04:50:18.236Z,12.54
2023-04-17T04:52:51.068Z,12.53
2023-04-17T04:55:41.853Z,12.53
2023-04-17T04:58:14.734Z,12.51
2023-04-17T05:00:47.753Z,12.55
2023-04-17T05:03:26.459Z,12.53
2023-04-17T05:05:59.564Z,12.54
2023-04-17T05:08:35.917Z,12.55
2023-04-17T05:11:15.432Z,12.58
2023-04-17T05:13:48.028Z,12.60
2023-04-17T05:16:25.197Z,12.61
2023-04-17T05:18:58.276Z,12.62
2023-04-17T05:21:51.264Z,12.59
2023-04-17T05:24:24.410Z,12.62
2023-04-17T05:26:57.368Z,12.62
2023-04-17T05:29:30.459Z,12.63
2023-04-17T05:32:04.401Z,12.55
2023-04-17T05:34:50.365Z,12.63
2023-04-17T05:37:22.949Z,12.66
2023-04-17T05:39:55.710Z,12.65
2023-04-17T05:42:28.143Z,12.64
2023-04-17T05:45:00.851Z,12.56
2023-04-17T05:47:33.459Z,12.58
2023-04-17T05:50:07.349Z,12.61
2023-04-17T05:52:40.960Z,12.69
2023-04-17T05:55:15.161Z,12.71
2023-04-17T05:57:48.530Z,12.74
2023-04-17T06:00:22.757Z,12.81
2023-04-17T06:02:57.370Z,12.81
2023-04-17T06:05:36.721Z,12.75
2023-04-17T06:08:09.167Z,12.80
2023-04-17T06:10:41.242Z,12.81
2023-04-17T06:13:13.632Z,12.83
2023-04-17T06:15:49.478Z,12.92
2023-04-17T06:18:22.196Z,12.89
2023-04-17T06:20:54.915Z,12.90
2023-04-17T06:23:27.541Z,12.94
2023-04-17T06:25:59.704Z,12.90
2023-04-17T06:28:32.336Z,12.78
2023-04-17T06:31:05.194Z,12.77
2023-04-17T06:33:37.414Z,12.76
2023-04-17T06:36:10.195Z,12.64
2023-04-17T06:38:52.583Z,12.68
2023-04-17T06:41:25.635Z,12.51
2023-04-17T06:43:59.066Z,12.52
2023-04-17T06:46:41.392Z,12.58
2023-04-17T06:49:13.868Z,12.48
2023-04-17T06:51:47.448Z,12.51
2023-04-17T06:54:20.261Z,12.51
2023-04-17T06:56:52.709Z,12.53
2023-04-17T06:59:25.057Z,12.56
2023-04-17T07:01:57.338Z,12.55
2023-04-17T07:04:31.270Z,12.48
2023-04-17T07:07:03.786Z,12.42
2023-04-17T07:09:36.146Z,12.46
2023-04-17T07:12:08.429Z,12.54
2023-04-17T07:14:40.810Z,12.57
2023-04-17T07:17:13.039Z,12.59
2023-04-17T07:19:45.411Z,12.61
2023-04-17T07:22:18.124Z,12.50
2023-04-17T07:24:50.746Z,12.46
2023-04-17T07:27:23.144Z,12.45
2023-04-17T07:29:55.490Z,12.45
2023-04-17T07:32:28.516Z,12.52
2023-04-17T07:35:01.047Z,12.54
2023-04-17T07:37:33.245Z,12.51
2023-04-17T07:40:09.771Z,12.45
2023-04-17T07:42:42.122Z,12.53
2023-04-17T07:45:14.759Z,12.54
2023-04-17T07:47:47.446Z,12.54
2023-04-17T07:50:19.783Z,12.60
2023-04-17T07:52:52.150Z,12.66
2023-04-17T07:55:24.662Z,12.69
2023-04-17T07:57:57.055Z,12.66
2023-04-17T08:00:29.471Z,12.64
2023-04-17T08:03:02.195Z,12.81
2023-04-17T08:05:35.103Z,12.77
2023-04-17T08:08:08.508Z,12.82
2023-04-17T08:10:40.683Z,12.86
2023-04-17T08:13:12.939Z,12.87
2023-04-17T08:15:45.938Z,13.05
2023-04-17T08:18:18.010Z,13.08
2023-04-17T08:20:50.227Z,13.14
2023-04-17T08:23:22.524Z,13.20
2023-04-17T08:25:55.131Z,13.26
2023-04-17T08:28:27.819Z,13.26
2023-04-17T08:31:00.155Z,13.34
2023-04-17T08:33:32.529Z,13.39
2023-04-17T08:36:07.233Z,13.38
2023-04-17T08:38:42.203Z,13.38
2023-04-17T08:41:17.273Z,13.48
2023-04-17T08:43:50.691Z,13.47
2023-04-17T08:46:25.068Z,13.39
2023-04-17T08:48:57.779Z,13.51
2023-04-17T08:51:30.065Z,13.59
2023-04-17T08:54:02.402Z,13.67
2023-04-17T08:56:35.098Z,13.71
2023-04-17T08:59:07.352Z,13.79
2023-04-17T09:01:39.794Z,13.89
2023-04-17T09:04:12.581Z,13.97
2023-04-17T09:06:54.711Z,13.98
2023-04-17T09:09:27.185Z,14.04
2023-04-17T09:12:14.878Z,14.08
2023-04-17T09:14:47.394Z,14.15
2023-04-17T09:17:21.056Z,14.20
2023-04-17T09:20:09.058Z,14.22
2023-04-17T09:22:42.271Z,14.24
2023-04-17T09:25:23.287Z,14.23
2023-04-17T09:27:56.585Z,14.28
2023-04-17T09:30:29.004Z,14.30
2023-04-17T09:33:08.828Z,14.31
2023-04-17T09:35:41.216Z,14.33
2023-04-17T09:38:13.868Z,14.33
2023-04-17T09:40:45.925Z,14.39
2023-04-17T09:43:18.857Z,14.47
2023-04-17T09:45:52.409Z,14.45
2023-04-17T09:48:24.821Z,14.55
2023-04-17T09:50:58.678Z,14.57
2023-04-17T09:53:31.553Z,14.48
2023-04-17T09:56:05.617Z,14.43
2023-04-17T09:58:39.431Z,14.49
2023-04-17T10:01:12.893Z,14.45
2023-04-17T10:03:45.986Z,14.42
2023-04-17T10:06:18.904Z,14.43
2023-04-17T10:08:52.335Z,14.40
2023-04-17T10:11:28.623Z,14.31
2023-04-17T10:14:10.139Z,14.34
2023-04-17T10:16:43.965Z,14.39
2023-04-17T10:19:33.053Z,14.46
2023-04-17T10:22:34.124Z,14.56
2023-04-17T10:25:23.577Z,14.55
2023-04-17T10:27:58.407Z,14.55
2023-04-17T10:30:55.389Z,14.49
2023-04-17T10:33:28.673Z,14.42
2023-04-17T10:36:00.966Z,14.47
2023-04-17T10:38:37.810Z,14.40
2023-04-17T10:41:12.016Z,14.45
2023-04-17T10:43:46.916Z,14.46
2023-04-17T10:46:17.551Z,14.49
2023-04-17T10:48:54.229Z,14.52
2023-04-17T10:51:43.807Z,14.48
2023-04-17T10:54:16.608Z,14.59
2023-04-17T10:56:49.316Z,14.65
2023-04-17T10:59:23.517Z,14.86
2023-04-17T11:02:07.902Z,14.85
2023-04-17T11:04:40.324Z,14.97
2023-04-17T11:07:16.084Z,14.93
2023-04-17T11:09:54.149Z,14.82
2023-04-17T11:12:26.305Z,14.82
2023-04-17T11:15:04.390Z,14.96
2023-04-17T11:17:40.293Z,15.04
2023-04-17T11:20:14.292Z,15.03
2023-04-17T11:22:46.603Z,14.86
2023-04-17T11:25:31.445Z,14.96
2023-04-17T11:28:06.038Z,15.01
2023-04-17T11:30:40.776Z,14.95
2023-04-17T11:33:14.101Z,15.09
2023-04-17T11:35:47.097Z,15.18
2023-04-17T11:38:22.362Z,15.06
2023-04-17T11:40:56.722Z,15.12
2023-04-17T11:43:30.424Z,15.31
2023-04-17T11:46:05.245Z,15.23
2023-04-17T11:48:36.124Z,15.31
2023-04-17T11:51:09.109Z,15.35
2023-04-17T11:53:49.018Z,15.33
2023-04-17T11:56:23.091Z,15.35
2023-04-17T11:58:56.650Z,15.37
2023-04-17T12:01:29.925Z,15.35
2023-04-17T12:04:02.613Z,15.28
2023-04-17T12:06:41.078Z,15.32
2023-04-17T12:09:21.838Z,15.34
2023-04-17T12:11:54.020Z,15.27
2023-04-17T12:14:26.794Z,15.28
2023-04-17T12:16:59.059Z,15.21
2023-04-17T12:19:32.104Z,15.10
2023-04-17T12:22:05.071Z,15.09
2023-04-17T12:24:37.081Z,15.12
2023-04-17T12:27:09.329Z,15.11
2023-04-17T12:29:44.523Z,15.11
2023-04-17T12:32:17.834Z,15.12
2023-04-17T12:34:50.648Z,15.04
2023-04-17T12:37:22.968Z,15.06
2023-04-17T12:39:55.113Z,15.02
2023-04-17T12:42:29.547Z,15.04
2023-04-17T12:45:03.569Z,14.96
2023-04-17T12:47:35.803Z,15.10
2023-04-17T12:50:10.583Z,15.14
2023-04-17T12:52:42.001Z,15.16
2023-04-17T12:55:14.382Z,15.10
2023-04-17T12:57:47.227Z,15.19
2023-04-17T13:00:21.322Z,15.24
2023-04-17T13:02:53.998Z,15.27
2023-04-17T13:05:26.932Z,15.26
2023-04-17T13:07:59.749Z,15.22
2023-04-17T13:10:32.004Z,15.32
2023-04-17T13:13:04.818Z,15.37
2023-04-17T13:15:37.182Z,15.44
2023-04-17T13:18:10.527Z,15.43
2023-04-17T13:20:43.082Z,15.48
2023-04-17T13:23:15.116Z,15.51
2023-04-17T13:25:47.747Z,15.61
2023-04-17T13:28:20.036Z,15.75
2023-04-17T13:30:53.130Z,15.86
2023-04-17T13:33:25.963Z,16.05
2023-04-17T13:35:58.682Z,16.26
2023-04-17T13:38:30.997Z,16.51
2023-04-17T13:41:03.274Z,16.52
2023-04-17T13:43:35.719Z,16.35
2023-04-17T13:46:09.308Z,16.27
2023-04-17T13:48:41.508Z,16.32
2023-04-17T13:51:14.726Z,16.33
2023-04-17T13:53:46.978Z,16.40
2023-04-17T13:56:19.399Z,16.41
2023-04-17T13:58:52.299Z,16.42
2023-04-17T14:01:24.898Z,16.43
2023-04-17T14:04:00.449Z,16.65
2023-04-17T14:06:34.826Z,16.50
2023-04-17T14:09:07.593Z,16.44
2023-04-17T14:11:39.826Z,16.35
2023-04-17T14:14:12.968Z,16.29
2023-04-17T14:16:47.280Z,16.06
2023-04-17T14:19:20.128Z,16.11
2023-04-17T14:21:52.805Z,16.08
2023-04-17T14:24:24.927Z,15.93
2023-04-17T14:26:57.970Z,16.09
2023-04-17T14:29:30.333Z,16.13
2023-04-17T14:32:02.739Z,16.14
2023-04-17T14:34:35.303Z,16.28
2023-04-17T14:37:07.796Z,16.32
2023-04-17T14:39:40.167Z,16.23
2023-04-17T14:42:12.953Z,16.20
2023-04-17T14:44:45.623Z,16.02
2023-04-17T14:47:18.027Z,15.95
2023-04-17T14:49:50.360Z,15.84
2023-04-17T14:52:22.755Z,15.88
2023-04-17T14:54:54.935Z,15.97
2023-04-17T14:57:27.869Z,16.05
2023-04-17T15:00:01.065Z,16.15
2023-04-17T15:02:38.379Z,16.10
2023-04-17T15:05:12.891Z,16.00
2023-04-17T15:07:45.606Z,16.07
2023-04-17T15:10:18.298Z,16.06
2023-04-17T15:12:50.462Z,15.95
2023-04-17T15:15:22.717Z,15.77
2023-04-17T15:17:54.989Z,15.76
2023-04-17T15:20:28.420Z,15.71
2023-04-17T15:23:00.905Z,15.68
2023-04-17T15:25:34.645Z,15.64
2023-04-17T15:28:07.089Z,15.68
2023-04-17T15:30:39.430Z,15.63
2023-04-17T15:33:12.394Z,15.69
2023-04-17T15:35:45.007Z,15.63
2023-04-17T15:38:17.531Z,15.60
2023-04-17T15:40:49.888Z,15.67
2023-04-17T15:43:22.491Z,15.64
2023-04-17T15:45:55.669Z,15.62
2023-04-17T15:48:27.982Z,15.69
2023-04-17T15:51:00.420Z,15.66
2023-04-17T15:53:33.246Z,15.51
2023-04-17T15:56:06.853Z,15.40
2023-04-17T15:58:39.062Z,15.49
2023-04-17T16:01:11.794Z,15.48
2023-04-17T16:03:44.327Z,15.49
2023-04-17T16:06:16.878Z,15.50
2023-04-17T16:08:49.553Z,15.57
2023-04-17T16:11:21.967Z,15.48
2023-04-17T16:13:54.181Z,15.41
2023-04-17T16:16:29.394Z,15.39
2023-04-17T16:19:02.066Z,15.43
2023-04-17T16:21:34.439Z,15.29
2023-04-17T16:24:07.269Z,15.38
2023-04-17T16:26:39.588Z,15.22
2023-04-17T16:29:12.040Z,15.30
2023-04-17T16:31:44.791Z,15.33
2023-04-17T16:34:17.327Z,15.24
2023-04-17T16:36:50.042Z,15.07
2023-04-17T16:39:22.671Z,15.27
2023-04-17T16:41:56.279Z,15.28
2023-04-17T16:44:29.805Z,15.28
2023-04-17T16:49:37.572Z,15.00
2023-04-17T16:52:10.305Z,15.22
2023-04-17T16:54:42.532Z,15.26
2023-04-17T16:57:15.055Z,15.25
2023-04-17T16:59:47.294Z,15.20
2023-04-17T17:02:19.475Z,15.23
2023-04-17T17:04:52.198Z,15.06
2023-04-17T17:07:24.411Z,15.13
2023-04-17T17:09:56.844Z,15.23
2023-04-17T17:12:29.258Z,15.10
2023-04-17T17:15:01.405Z,15.11
2023-04-17T17:17:33.848Z,15.02
2023-04-17T17:20:08.414Z,14.97
2023-04-17T17:22:40.633Z,15.00
2023-04-17T17:25:13.218Z,14.83
2023-04-17T17:27:45.607Z,14.68
2023-04-17T17:30:19.111Z,14.71
2023-04-17T17:32:51.488Z,14.45
2023-04-17T17:35:24.317Z,14.48
2023-04-17T17:37:58.276Z,14.45
2023-04-17T17:40:31.092Z,14.25
2023-04-17T17:43:04.868Z,14.06
2023-04-17T17:45:37.186Z,13.94
2023-04-17T17:48:10.326Z,14.04
2023-04-17T17:50:42.703Z,14.02
2023-04-17T17:53:17.582Z,13.99
2023-04-17T17:55:55.143Z,13.88
2023-04-17T17:58:27.647Z,13.83
2023-04-17T18:01:00.071Z,13.78
2023-04-17T18:03:33.037Z,13.77
2023-04-17T18:06:05.806Z,13.70
2023-04-17T18:08:38.242Z,13.80
2023-04-17T18:11:10.912Z,13.57
2023-04-17T18:13:43.261Z,13.79
2023-04-17T18:16:15.784Z,13.66
2023-04-17T18:18:48.264Z,13.71
2023-04-17T18:21:20.724Z,13.54
2023-04-17T18:23:53.097Z,13.65
2023-04-17T18:26:25.534Z,13.61
2023-04-17T18:28:57.891Z,13.56
2023-04-17T18:31:30.152Z,13.61
2023-04-17T18:34:02.883Z,13.44
2023-04-17T18:36:35.225Z,13.55
2023-04-17T18:39:07.614Z,13.46
2023-04-17T18:41:40.194Z,13.45
2023-04-17T18:44:12.540Z,13.37
2023-04-17T18:46:45.243Z,13.40
2023-04-17T18:49:17.972Z,13.27
2023-04-17T18:51:50.348Z,13.19
2023-04-17T18:54:23.183Z,13.29
2023-04-17T18:56:55.606Z,13.29
2023-04-17T18:59:28.183Z,13.19
2023-04-17T19:02:00.661Z,13.05
2023-04-17T19:04:33.056Z,13.09
2023-04-17T19:07:05.542Z,13.12
2023-04-17T19:09:38.173Z,13.10
2023-04-17T19:12:10.831Z,13.16
2023-04-17T19:14:43.057Z,13.15
2023-04-17T19:17:16.086Z,12.99
2023-04-17T19:19:48.396Z,13.09
2023-04-17T19:22:20.850Z,13.11
2023-04-17T19:24:53.288Z,13.08
2023-04-17T19:27:27.177Z,13.02
2023-04-17T19:29:59.872Z,12.97
2023-04-17T19:32:32.240Z,12.91
2023-04-17T19:35:04.595Z,12.77
2023-04-17T19:37:37.080Z,12.82
2023-04-17T19:40:23.833Z,12.85
2023-04-17T19:43:01.515Z,12.88
2023-04-17T19:45:35.923Z,12.82
2023-04-17T19:48:09.299Z,12.80
2023-04-17T19:50:41.504Z,12.80
2023-04-17T19:53:13.841Z,12.83
2023-04-17T19:55:46.386Z,12.86
2023-04-17T19:58:18.567Z,12.87
2023-04-17T20:00:50.841Z,12.80
2023-04-17T20:03:23.374Z,12.89
2023-04-17T20:05:56.230Z,12.87
2023-04-17T20:08:29.016Z,12.88
2023-04-17T20:11:01.809Z,12.97
2023-04-17T20:13:34.706Z,13.03
2023-04-17T20:16:07.688Z,12.97
2023-04-17T20:18:40.050Z,12.92
2023-04-17T20:21:13.216Z,12.88
2023-04-17T20:23:46.933Z,12.88
2023-04-17T20:26:19.183Z,12.91
2023-04-17T20:28:54.745Z,12.90
2023-04-17T20:31:27.125Z,12.96
2023-04-17T20:33:59.498Z,12.91
2023-04-17T20:36:31.953Z,12.85
2023-04-17T20:39:04.278Z,12.78
2023-04-17T20:41:37.776Z,12.76
2023-04-17T20:44:12.291Z,12.81
2023-04-17T20:46:44.783Z,12.79
2023-04-17T20:49:17.166Z,12.69
2023-04-17T20:51:49.459Z,12.70
2023-04-17T20:54:23.181Z,12.56
2023-04-17T20:56:55.598Z,12.62
2023-04-17T20:59:27.895Z,12.62
2023-04-17T21:02:00.147Z,12.66
2023-04-17T21:04:32.788Z,12.68
2023-04-17T21:07:05.398Z,12.62
2023-04-17T21:09:37.604Z,12.68
2023-04-17T21:12:10.279Z,12.71
2023-04-17T21:14:43.389Z,12.72
2023-04-17T21:17:15.703Z,12.73
2023-04-17T21:19:49.434Z,12.74
2023-04-17T21:22:21.791Z,12.69
2023-04-17T21:24:54.269Z,12.71
2023-04-17T21:27:26.677Z,12.60
2023-04-17T21:29:59.009Z,12.72
2023-04-17T21:32:31.363Z,12.66
2023-04-17T21:35:03.622Z,12.78
2023-04-17T21:37:36.063Z,12.72
2023-04-17T21:40:10.165Z,12.66
2023-04-17T21:42:42.794Z,12.59
2023-04-17T21:45:16.410Z,12.61
2023-04-17T21:47:48.821Z,12.52
2023-04-17T21:50:21.495Z,12.55
2023-04-17T21:52:54.074Z,12.49
2023-04-17T21:55:26.649Z,12.51
2023-04-17T21:57:59.447Z,12.42
2023-04-17T22:00:31.838Z,12.46
2023-04-17T22:03:04.183Z,12.54
2023-04-17T22:05:36.686Z,12.48
2023-04-17T22:08:09.017Z,12.53
2023-04-17T22:10:41.176Z,12.54
2023-04-17T22:13:14.963Z,12.54
2023-04-17T22:15:48.444Z,12.49
2023-04-17T22:18:21.936Z,12.50
2023-04-17T22:21:46.449Z,12.55
2023-04-17T22:24:54.500Z,12.56
2023-04-17T22:27:43.930Z,12.56
2023-04-17T22:30:52.114Z,12.57
2023-04-17T22:33:59.857Z,12.55
2023-04-17T22:37:25.055Z,12.34
2023-04-17T22:40:15.279Z,12.40
2023-04-17T22:43:23.072Z,12.33
2023-04-17T22:45:56.473Z,12.39
2023-04-17T22:48:28.876Z,12.41
2023-04-17T22:51:01.089Z,12.38
2023-04-17T22:53:33.099Z,12.30
2023-04-17T22:56:06.054Z,12.35
2023-04-17T22:58:38.535Z,12.25
2023-04-17T23:01:10.642Z,12.23
2023-04-17T23:03:42.744Z,12.31
2023-04-17T23:06:14.836Z,12.35
2023-04-17T23:08:46.828Z,12.33
2023-04-17T23:11:19.363Z,12.33
2023-04-17T23:13:51.714Z,12.27
2023-04-17T23:16:24.361Z,12.20
2023-04-17T23:18:56.629Z,12.20
2023-04-17T23:21:28.826Z,12.26
2023-04-17T23:24:01.062Z,12.26
2023-04-17T23:26:33.205Z,12.24
2023-04-17T23:29:05.679Z,12.24
2023-04-17T23:31:39.205Z,12.25
2023-04-17T23:34:11.614Z,12.33
2023-04-17T23:36:44.076Z,12.32
2023-04-17T23:39:16.346Z,12.28
2023-04-17T23:41:48.953Z,12.19
2023-04-17T23:44:21.354Z,12.16
2023-04-17T23:46:54.032Z,12.19
2023-04-17T23:49:26.332Z,12.21
2023-04-17T23:51:58.889Z,12.24
2023-04-17T23:54:31.054Z,12.24
2023-04-17T23:57:03.799Z,12.21
2023-04-17T23:59:35.891Z,12.27
